AirNav   Everest Fuels
 
 1454 users online  

4N4 Lidgerwood Municipal Airport
Lidgerwood, North Dakota, USA

GOING TO LIDGERWOOD?


FAA INFORMATION EFFECTIVE 16 JULY 2020

Location

FAA Identifier: 4N4
Lat/Long: 46-05-21.0600N 097-09-58.0850W
46-05.351000N 097-09.968083W
46.0891833,-97.1661347
(estimated)
Elevation: 1081 ft. / 329 m (estimated)
Variation: 06E (1985)
From city: 1 mile NW of LIDGERWOOD, ND
Time zone: UTC -5 (UTC -6 during Standard Time)
Zip code: 58053

Airport Operations

Airport use: Open to the public
Activation date: 11/1984
Control tower: no
ARTCC: MINNEAPOLIS CENTER
FSS: GRAND FORKS FLIGHT SERVICE STATION
NOTAMs facility: GFK (NOTAM-D service available)
Attendance: UNATNDD
Wind indicator: yes
Segmented circle: no

Airport Communications

CTAF: 122.9

Airport Services

Parking: tiedowns

Runway Information

Runway 17/35

Dimensions: 2220 x 80 ft. / 677 x 24 m
Surface: turf, in fair condition
RY WIDTH 60 FT IN AREAS WITH STEEP DROP-OFFS INTO WATER AND NO RY SAFETY AREA RY 35 END.
Runway edge markings: RY 17/35 NO THRESHOLD OR RY SIDE MARKERS.
RUNWAY 17  RUNWAY 35
Latitude: 46-05.533667N46-05.168333N
Longitude: 097-09.968167W097-09.968000W
Elevation: 1082.0 ft.1082.0 ft.
Traffic pattern: leftleft
Obstructions: 16 ft. road, 450 ft. from runway, 28:1 slope to clear5 ft. brush

Airport Ownership and Management from official FAA records

Ownership: Publicly-owned
Owner: LIDGERWOOD ARPT AUTH
608 SE 2ND ST
LIDGERWOOD, ND 58053
Phone (701) 640-0107
Manager: ALFRED NEIBER
9105 148TH AVE SE
LIDGERWOOD, ND 58053
Phone 701-640-0107
ADDNL PHONE NUMBER: AIRPORT MNGRS HOME PHONE 701-538-7411.

Airport Operational Statistics

Aircraft operations: avg 26/month *
98% transient general aviation
2% air taxi
* for 12-month period ending 27 July 2017

Additional Remarks

AIRPORT CLOSED IN WINTER MONTHS DUE TO NO SNOW REMOVAL.
BIRDS & DEER ON & INVOF ARPT.
FOR CD CTC MINNEAPOLIS ARTCC AT 651-463-5588.

Instrument Procedures

There are no published instrument procedures at 4N4.

Some nearby airports with instrument procedures:

KGWR - Gwinner Airport-Roger Melroe Field (21 nm W)
KBWP - Harry Stern Airport (25 nm E)
8D3 - Sisseton Municipal Airport (26 nm S)
KBTN - Britton Municipal Airport (29 nm SW)
6L3 - Lisbon Municipal Airport (32 nm NW)
 
Loc | Ops | Rwys | IFR | FBO | Links
Com | Nav | Svcs | Stats | Notes

Bismarck Aero Center
AirBoss

 
Area around 4N4 (Lidgerwood Municipal Airport)
 
Road maps at: MapQuest Bing Google
 
Aerial photo
WARNING: Photo may not be current or correct
Aerial photo of 4N4 (Lidgerwood Municipal Airport)
Do you have a better or more recent aerial photo of Lidgerwood Municipal Airport that you would like to share? If so, please send us your photo.

 
Sectional chart

 
Airport distance calculator
Flying to Lidgerwood Municipal Airport? Find the distance to fly.

From to 4N4

Sunrise and sunset
Times for 03-Aug-2020
 Local
(UTC-5)
 Zulu
(UTC)
Morning civil twilight05:4110:41
Sunrise06:1511:15
Sunset20:5401:54
Evening civil twilight21:2802:28

Current date and time
Zulu (UTC)  03-Aug-2020 15:44:45
Local (UTC-5)  03-Aug-2020 10:44:45
 
METAR
KGWR 
21nm W 
031535Z AUTO VRB04KT 10SM CLR 21/12 A3022 RMK A01
K8D3 
26nm S 
031456Z AUTO 36006KT 20/12 A3020 RMK AO1 SLP218 T02000117 53001
KETH 
36nm SE 
031533Z AUTO 31005KT 10SM CLR 21/12 A3022 RMK AO2 TSNO
K2D5 
38nm W 
031535Z AUTO VRB04KT 10SM CLR 21/12 A3023 RMK AO2
TAF
NOTAMs
Click for the latest NOTAMs
NOTAMs are issued by the DoD/FAA and will open in a separate window not controlled by AirNav.

 

 
 

Would you like to see your business listed on this page?

 If your business provides an interesting product or service to pilots, flight crews, aircraft, or users of the Lidgerwood Municipal Airport, you should consider listing it here.  To start the listing process, click on the button below
 
Add a business
 

Other Pages about Lidgerwood Municipal Airport

Update a link
 
Copyright © AirNav, LLC. All rights reserved. Privacy Policy  Contact